createdAt,value
2022-08-27T00:01:48.684Z,70.14
2022-08-27T00:04:16.339Z,70.13
2022-08-27T00:06:44.032Z,70.21
2022-08-27T00:09:14.085Z,70.03
2022-08-27T00:11:41.525Z,69.96
2022-08-27T00:14:09.437Z,70.04
2022-08-27T00:16:36.798Z,70.07
2022-08-27T00:19:04.214Z,70.13
2022-08-27T00:21:33.292Z,69.86
2022-08-27T00:24:01.618Z,69.66
2022-08-27T00:26:29.315Z,69.77
2022-08-27T00:28:58.068Z,69.71
2022-08-27T00:31:27.481Z,69.85
2022-08-27T00:33:55.882Z,69.80
2022-08-27T00:36:24.108Z,70.04
2022-08-27T00:38:52.778Z,69.73
2022-08-27T00:41:22.400Z,70.44
2022-08-27T00:43:54.498Z,70.13
2022-08-27T00:46:29.649Z,70.15
2022-08-27T00:49:04.371Z,70.35
2022-08-27T00:51:32.647Z,70.72
2022-08-27T00:54:01.005Z,70.93
2022-08-27T00:56:34.568Z,70.83
2022-08-27T00:59:03.931Z,71.07
2022-08-27T01:01:35.953Z,71.04
2022-08-27T01:04:06.137Z,70.45
2022-08-27T01:06:37.120Z,70.42
2022-08-27T01:09:14.854Z,69.92
2022-08-27T01:11:42.273Z,70.21
2022-08-27T01:14:09.993Z,70.22
2022-08-27T01:16:43.956Z,70.72
2022-08-27T01:19:29.333Z,70.53
2022-08-27T01:22:32.959Z,70.35
2022-08-27T01:25:08.582Z,70.39
2022-08-27T01:27:36.735Z,70.29
2022-08-27T01:30:06.579Z,70.15
2022-08-27T01:32:36.471Z,70.09
2022-08-27T01:35:08.458Z,70.39
2022-08-27T01:37:37.434Z,70.50
2022-08-27T01:40:06.373Z,70.30
2022-08-27T01:42:42.665Z,70.47
2022-08-27T01:45:27.612Z,70.66
2022-08-27T01:47:55.178Z,70.40
2022-08-27T01:50:29.604Z,70.48
2022-08-27T01:52:57.068Z,70.42
2022-08-27T01:55:27.091Z,70.66
2022-08-27T01:57:55.638Z,70.68
2022-08-27T02:00:35.125Z,71.06
2022-08-27T02:03:03.533Z,70.90
2022-08-27T02:05:31.440Z,70.88
2022-08-27T02:08:08.403Z,70.99
2022-08-27T02:10:39.325Z,70.99
2022-08-27T02:13:08.290Z,71.43
2022-08-27T02:15:40.416Z,71.58
2022-08-27T02:18:08.960Z,71.40
2022-08-27T02:20:36.994Z,71.39
2022-08-27T02:23:05.147Z,71.26
2022-08-27T02:25:33.519Z,71.51
2022-08-27T02:28:01.970Z,72.10
2022-08-27T02:30:32.328Z,72.83
2022-08-27T02:33:04.606Z,72.82
2022-08-27T02:35:40.895Z,72.97
2022-08-27T02:38:08.801Z,72.97
2022-08-27T02:40:37.482Z,72.23
2022-08-27T02:43:05.613Z,72.22
2022-08-27T02:45:32.927Z,72.06
2022-08-27T02:48:03.989Z,72.71
2022-08-27T02:50:31.670Z,73.09
2022-08-27T02:52:59.002Z,73.24
2022-08-27T02:55:26.347Z,73.94
2022-08-27T02:57:53.810Z,73.61
2022-08-27T03:00:23.294Z,73.85
2022-08-27T03:02:52.006Z,74.32
2022-08-27T03:05:20.258Z,73.96
2022-08-27T03:07:48.036Z,74.07
2022-08-27T03:10:19.653Z,73.88
2022-08-27T03:12:47.202Z,73.61
2022-08-27T03:15:18.347Z,73.93
2022-08-27T03:18:04.955Z,74.21
2022-08-27T03:20:33.422Z,74.09
2022-08-27T03:23:01.492Z,73.77
2022-08-27T03:25:29.096Z,74.05
2022-08-27T03:27:56.484Z,74.04
2022-08-27T03:30:24.985Z,74.21
2022-08-27T03:32:52.568Z,74.09
2022-08-27T03:35:21.799Z,73.76
2022-08-27T03:37:50.507Z,74.01
2022-08-27T03:40:19.935Z,74.00
2022-08-27T03:42:47.334Z,73.93
2022-08-27T03:45:15.540Z,73.85
2022-08-27T03:47:43.157Z,73.54
2022-08-27T03:50:11.808Z,73.80
2022-08-27T03:52:39.654Z,73.91
2022-08-27T03:55:09.578Z,74.01
2022-08-27T03:57:37.351Z,73.83
2022-08-27T04:00:11.809Z,73.79
2022-08-27T04:02:40.571Z,73.98
2022-08-27T04:05:13.070Z,74.04
2022-08-27T04:07:42.501Z,73.99
2022-08-27T04:10:12.667Z,73.91
2022-08-27T04:12:44.136Z,73.85
2022-08-27T04:15:13.601Z,73.73
2022-08-27T04:17:41.859Z,74.03
2022-08-27T04:20:34.006Z,74.42
2022-08-27T04:22:58.196Z,74.40
2022-08-27T04:25:25.465Z,74.57
2022-08-27T04:27:57.427Z,75.08
2022-08-27T04:30:24.753Z,75.26
2022-08-27T04:32:52.339Z,74.91
2022-08-27T04:35:19.636Z,74.67
2022-08-27T04:37:47.018Z,75.16
2022-08-27T04:40:14.499Z,75.03
2022-08-27T04:42:42.483Z,75.09
2022-08-27T04:45:10.528Z,74.63
2022-08-27T04:47:38.024Z,74.54
2022-08-27T04:50:06.400Z,74.70
2022-08-27T04:52:35.193Z,74.91
2022-08-27T04:55:09.273Z,74.83
2022-08-27T04:57:38.118Z,75.15
2022-08-27T05:00:07.977Z,74.89
2022-08-27T05:02:35.288Z,73.92
2022-08-27T05:05:02.606Z,74.05
2022-08-27T05:07:30.020Z,74.79
2022-08-27T05:09:57.484Z,74.52
2022-08-27T05:12:26.261Z,74.14
2022-08-27T05:14:55.316Z,74.10
2022-08-27T05:17:22.740Z,74.09
2022-08-27T05:19:50.244Z,74.34
2022-08-27T05:22:18.236Z,74.01
2022-08-27T05:24:50.006Z,73.45
2022-08-27T05:27:17.904Z,72.79
2022-08-27T05:29:45.385Z,72.96
2022-08-27T05:32:13.632Z,72.94
2022-08-27T05:34:41.027Z,72.56
2022-08-27T05:37:08.664Z,72.70
2022-08-27T05:39:35.946Z,72.51
2022-08-27T05:42:03.301Z,72.31
2022-08-27T05:44:40.985Z,73.26
2022-08-27T05:47:10.015Z,72.55
2022-08-27T05:49:38.105Z,72.32
2022-08-27T05:52:10.860Z,71.57
2022-08-27T05:54:42.647Z,71.81
2022-08-27T05:57:10.649Z,71.78
2022-08-27T05:59:57.226Z,71.11
2022-08-27T06:02:26.476Z,71.09
2022-08-27T06:04:54.151Z,71.63
2022-08-27T06:07:27.984Z,71.37
2022-08-27T06:09:55.439Z,70.59
2022-08-27T06:12:28.045Z,70.77
2022-08-27T06:14:56.111Z,71.49
2022-08-27T06:17:23.418Z,70.79
2022-08-27T06:19:50.836Z,71.82
2022-08-27T06:22:56.964Z,72.22
2022-08-27T06:25:24.359Z,72.37
2022-08-27T06:27:51.664Z,72.02
2022-08-27T06:30:19.075Z,72.09
2022-08-27T06:32:46.614Z,71.93
2022-08-27T06:35:13.914Z,71.96
2022-08-27T06:37:41.355Z,72.28
2022-08-27T06:40:10.819Z,71.88
2022-08-27T06:42:38.987Z,73.00
2022-08-27T06:45:08.145Z,71.39
2022-08-27T06:47:35.417Z,71.69
2022-08-27T06:50:03.174Z,72.37
2022-08-27T06:52:30.466Z,71.56
2022-08-27T06:54:58.159Z,71.64
2022-08-27T06:57:25.499Z,71.03
2022-08-27T06:59:52.836Z,70.94
2022-08-27T07:02:20.460Z,70.89
2022-08-27T07:04:47.941Z,70.81
2022-08-27T07:07:15.580Z,71.12
2022-08-27T07:10:01.980Z,70.35
2022-08-27T07:12:31.623Z,71.00
2022-08-27T07:14:58.893Z,71.06
2022-08-27T07:17:26.928Z,69.94
2022-08-27T07:19:54.316Z,71.01
2022-08-27T07:22:21.607Z,70.25
2022-08-27T07:24:48.847Z,68.78
2022-08-27T07:27:16.293Z,67.60
2022-08-27T07:29:43.621Z,67.04
2022-08-27T07:32:11.138Z,65.97
2022-08-27T07:34:38.422Z,67.49
2022-08-27T07:37:06.986Z,67.12
2022-08-27T07:39:34.347Z,66.06
2022-08-27T07:42:20.126Z,64.98
2022-08-27T07:44:47.885Z,59.04
2022-08-27T07:47:15.126Z,59.73
2022-08-27T07:49:42.469Z,58.48
2022-08-27T07:52:10.068Z,59.64
2022-08-27T07:54:37.702Z,57.73
2022-08-27T07:57:05.235Z,60.32
2022-08-27T07:59:32.973Z,59.06
2022-08-27T08:02:00.418Z,58.92
2022-08-27T08:04:28.034Z,60.68
2022-08-27T08:06:56.004Z,60.86
2022-08-27T08:09:25.124Z,62.72
2022-08-27T08:11:53.564Z,63.17
2022-08-27T08:14:21.506Z,64.00
2022-08-27T08:16:49.646Z,65.49
2022-08-27T08:19:17.497Z,63.50
2022-08-27T08:21:44.831Z,62.69
2022-08-27T08:24:12.179Z,62.61
2022-08-27T08:26:41.948Z,62.42
2022-08-27T08:29:09.512Z,62.97
2022-08-27T08:31:42.761Z,64.30
2022-08-27T08:34:11.294Z,64.01
2022-08-27T08:36:42.435Z,62.24
2022-08-27T08:39:13.472Z,62.24
2022-08-27T08:41:59.057Z,64.88
2022-08-27T08:44:43.408Z,64.95
2022-08-27T08:47:31.763Z,64.72
2022-08-27T08:50:26.431Z,64.67
2022-08-27T08:52:59.847Z,64.26
2022-08-27T08:55:39.119Z,65.18
2022-08-27T08:58:35.189Z,64.53
2022-08-27T09:01:07.093Z,63.71
2022-08-27T09:03:40.865Z,63.57
2022-08-27T09:06:16.893Z,63.90
2022-08-27T09:08:45.273Z,63.96
2022-08-27T09:11:21.893Z,62.87
2022-08-27T09:13:56.037Z,62.63
2022-08-27T09:16:23.649Z,63.29
2022-08-27T09:19:00.435Z,61.69
2022-08-27T09:21:42.847Z,61.54
2022-08-27T09:24:24.866Z,61.69
2022-08-27T09:26:52.754Z,62.56
2022-08-27T09:29:27.488Z,61.48
2022-08-27T09:32:00.815Z,60.47
2022-08-27T09:34:42.520Z,62.85
2022-08-27T09:37:21.524Z,61.84
2022-08-27T09:40:22.568Z,59.75
2022-08-27T09:42:54.922Z,57.99
2022-08-27T09:45:27.521Z,58.45
2022-08-27T09:48:14.053Z,59.14
2022-08-27T09:50:53.436Z,58.70
2022-08-27T09:53:44.755Z,59.90
2022-08-27T09:56:40.294Z,58.19
2022-08-27T09:59:22.777Z,59.32
2022-08-27T10:02:04.428Z,59.08
2022-08-27T10:04:51.381Z,58.98
2022-08-27T10:07:36.816Z,59.44
2022-08-27T10:10:43.673Z,58.86
2022-08-27T10:13:25.183Z,58.15
2022-08-27T10:16:11.023Z,58.82
2022-08-27T10:18:53.512Z,57.50
2022-08-27T10:22:03.401Z,59.77
2022-08-27T10:24:44.185Z,58.28
2022-08-27T10:27:26.726Z,57.90
2022-08-27T10:30:02.971Z,57.65
2022-08-27T10:32:39.285Z,59.19
2022-08-27T10:35:54.754Z,58.53
2022-08-27T10:38:40.049Z,56.42
2022-08-27T10:41:34.285Z,58.93
2022-08-27T10:44:24.215Z,56.58
2022-08-27T10:47:05.004Z,56.61
2022-08-27T10:49:52.118Z,55.67
2022-08-27T10:52:55.796Z,56.96
2022-08-27T10:55:33.858Z,55.65
2022-08-27T10:59:03.149Z,56.59
2022-08-27T11:02:14.582Z,56.84
2022-08-27T11:04:52.632Z,57.56
2022-08-27T11:07:33.309Z,56.78
2022-08-27T11:10:04.816Z,57.25
2022-08-27T11:12:42.589Z,56.73
2022-08-27T11:15:32.268Z,54.52
2022-08-27T11:18:19.195Z,58.24
2022-08-27T11:21:10.857Z,58.01
2022-08-27T11:23:47.262Z,55.43
2022-08-27T11:26:14.822Z,54.05
2022-08-27T11:28:58.843Z,54.21
2022-08-27T11:31:43.710Z,54.66
2022-08-27T11:34:35.120Z,55.15
2022-08-27T11:37:04.923Z,55.81
2022-08-27T11:40:04.048Z,54.50
2022-08-27T11:42:42.488Z,55.33
2022-08-27T11:45:34.675Z,55.32
2022-08-27T11:48:37.488Z,55.00
2022-08-27T11:51:12.897Z,55.43
2022-08-27T11:53:57.221Z,55.62
2022-08-27T11:56:45.507Z,53.71
2022-08-27T11:59:27.133Z,54.12
2022-08-27T12:02:00.571Z,54.49
2022-08-27T12:04:39.828Z,53.50
2022-08-27T12:07:17.499Z,53.89
2022-08-27T12:09:56.747Z,54.31
2022-08-27T12:12:48.115Z,55.26
2022-08-27T12:15:34.220Z,55.90
2022-08-27T12:18:36.888Z,52.33
2022-08-27T12:21:40.917Z,53.84
2022-08-27T12:24:44.482Z,53.68
2022-08-27T12:27:28.318Z,54.23
2022-08-27T12:30:34.637Z,55.38
2022-08-27T12:33:36.848Z,54.88
2022-08-27T12:36:17.493Z,55.51
2022-08-27T12:38:59.685Z,54.64
2022-08-27T12:41:44.228Z,52.75
2022-08-27T12:44:33.743Z,54.45
2022-08-27T12:47:16.271Z,53.80
2022-08-27T12:49:55.783Z,53.42
2022-08-27T12:52:42.063Z,53.30
2022-08-27T12:55:12.505Z,53.02
2022-08-27T12:58:31.756Z,53.93
2022-08-27T13:01:43.161Z,53.59
2022-08-27T13:04:24.874Z,54.09
2022-08-27T13:06:52.780Z,51.54
2022-08-27T13:09:33.462Z,52.20
2022-08-27T13:12:04.787Z,51.07
2022-08-27T13:14:41.583Z,52.83
2022-08-27T13:17:19.154Z,52.49
2022-08-27T13:19:59.685Z,51.30
2022-08-27T13:22:32.583Z,51.46
2022-08-27T13:25:00.357Z,50.57
2022-08-27T13:27:33.197Z,50.35
2022-08-27T13:30:08.182Z,51.09
2022-08-27T13:32:38.378Z,52.38
2022-08-27T13:35:07.063Z,51.39
2022-08-27T13:37:36.209Z,51.29
2022-08-27T13:40:05.314Z,49.42
2022-08-27T13:42:33.491Z,48.45
2022-08-27T13:45:07.853Z,49.05
2022-08-27T13:47:46.139Z,49.78
2022-08-27T13:50:25.977Z,50.08
2022-08-27T13:53:25.327Z,50.16
2022-08-27T13:55:54.289Z,50.20
2022-08-27T13:58:31.108Z,48.42
2022-08-27T14:01:09.270Z,50.05
2022-08-27T14:03:50.167Z,49.25
2022-08-27T14:06:53.702Z,49.52
2022-08-27T14:09:28.786Z,49.59
2022-08-27T14:12:05.832Z,49.49
2022-08-27T14:14:41.715Z,49.49
2022-08-27T14:17:27.909Z,47.63
2022-08-27T14:20:05.911Z,47.14
2022-08-27T14:22:36.493Z,47.22
2022-08-27T14:25:04.400Z,47.15
2022-08-27T14:27:32.122Z,47.96
2022-08-27T14:29:59.553Z,49.82
2022-08-27T14:32:26.978Z,51.16
2022-08-27T14:34:54.456Z,51.40
2022-08-27T14:37:21.895Z,52.33
2022-08-27T14:39:49.255Z,50.97
2022-08-27T14:42:17.783Z,51.73
2022-08-27T14:44:45.469Z,51.91
2022-08-27T14:47:16.167Z,52.56
2022-08-27T14:49:46.348Z,52.68
2022-08-27T14:52:17.785Z,52.49
2022-08-27T14:54:45.161Z,53.65
2022-08-27T14:57:13.555Z,53.23
2022-08-27T14:59:41.897Z,52.67
2022-08-27T15:02:14.146Z,52.95
2022-08-27T15:04:42.370Z,53.22
2022-08-27T15:07:14.820Z,53.25
2022-08-27T15:09:42.703Z,53.21
2022-08-27T15:12:16.881Z,52.61
2022-08-27T15:17:49.809Z,52.75
2022-08-27T15:20:20.066Z,53.74
2022-08-27T15:22:52.271Z,53.14
2022-08-27T15:25:21.267Z,52.75
2022-08-27T15:27:49.565Z,52.49
2022-08-27T15:30:27.092Z,52.39
2022-08-27T15:32:55.630Z,52.28
2022-08-27T15:35:27.046Z,53.48
2022-08-27T15:37:57.041Z,54.01
2022-08-27T15:40:26.913Z,53.65
2022-08-27T15:43:06.024Z,53.85
2022-08-27T15:45:35.390Z,54.24
2022-08-27T15:48:03.174Z,54.31
2022-08-27T15:53:37.919Z,54.83
2022-08-27T15:56:11.026Z,54.52
2022-08-27T15:58:41.336Z,55.29
2022-08-27T16:01:17.523Z,54.61
2022-08-27T16:03:47.058Z,54.91
2022-08-27T16:06:20.992Z,55.47
2022-08-27T16:09:01.934Z,54.85
2022-08-27T16:15:08.468Z,55.16
2022-08-27T16:18:01.675Z,56.34
2022-08-27T16:20:33.084Z,56.21
2022-08-27T16:34:56.286Z,56.91
2022-08-27T16:37:29.938Z,56.62
2022-08-27T16:40:03.934Z,57.33
2022-08-27T16:42:36.483Z,56.84
2022-08-27T16:48:01.279Z,57.22
2022-08-27T17:03:52.108Z,59.68
2022-08-27T17:16:48.143Z,62.65
2022-08-27T17:19:19.493Z,62.63
2022-08-27T17:21:49.470Z,63.44
2022-08-27T17:24:20.083Z,63.58
2022-08-27T17:26:49.264Z,63.95
2022-08-27T17:29:19.433Z,63.94
2022-08-27T17:31:54.331Z,64.75
2022-08-27T17:34:25.555Z,64.53
2022-08-27T17:37:19.003Z,63.59
2022-08-27T17:39:48.981Z,63.55
2022-08-27T17:42:18.182Z,64.13
2022-08-27T17:44:48.283Z,63.81
2022-08-27T17:47:21.151Z,64.72
2022-08-27T17:49:49.837Z,64.41
2022-08-27T17:52:23.534Z,63.97
2022-08-27T17:54:58.021Z,65.18
2022-08-27T17:57:40.466Z,64.26
2022-08-27T18:00:13.157Z,64.90
2022-08-27T18:02:47.268Z,64.78
2022-08-27T18:05:19.182Z,64.97
2022-08-27T18:07:48.042Z,65.05
2022-08-27T18:10:23.269Z,64.94
2022-08-27T18:12:55.802Z,64.91
2022-08-27T18:15:30.448Z,64.51
2022-08-27T18:18:00.392Z,64.57
2022-08-27T18:20:31.399Z,64.85
2022-08-27T18:23:00.357Z,64.72
2022-08-27T18:25:35.791Z,64.75
2022-08-27T18:28:13.672Z,64.62
2022-08-27T18:30:44.722Z,64.87
2022-08-27T18:33:14.064Z,64.93
2022-08-27T18:35:44.629Z,65.07
2022-08-27T18:38:13.941Z,65.40
2022-08-27T18:40:49.468Z,65.95
2022-08-27T18:43:21.454Z,65.46
2022-08-27T18:45:49.454Z,65.66
2022-08-27T18:48:24.307Z,65.79
2022-08-27T18:51:02.381Z,65.25
2022-08-27T18:53:34.902Z,65.72
2022-08-27T18:56:06.917Z,65.57
2022-08-27T18:58:35.712Z,66.10
2022-08-27T19:01:11.152Z,65.87
2022-08-27T19:03:48.060Z,65.59
2022-08-27T19:06:23.076Z,66.65
2022-08-27T19:08:55.169Z,66.33
2022-08-27T19:11:26.766Z,66.59
2022-08-27T19:13:58.293Z,66.35
2022-08-27T19:16:49.511Z,66.15
2022-08-27T19:19:22.742Z,66.01
2022-08-27T19:21:58.592Z,66.01
2022-08-27T19:24:31.992Z,66.55
2022-08-27T19:27:05.755Z,66.59
2022-08-27T19:29:35.867Z,67.25
2022-08-27T19:32:04.372Z,67.41
2022-08-27T19:34:34.833Z,66.81
2022-08-27T19:37:05.684Z,66.90
2022-08-27T19:39:39.189Z,66.82
2022-08-27T19:42:07.938Z,66.89
2022-08-27T19:44:37.423Z,66.63
2022-08-27T19:47:11.022Z,65.88
2022-08-27T19:49:40.528Z,65.65
2022-08-27T19:52:09.678Z,66.21
2022-08-27T19:54:56.957Z,66.72
2022-08-27T19:57:26.138Z,66.98
2022-08-27T19:59:54.824Z,66.80
2022-08-27T20:02:23.546Z,67.49
2022-08-27T20:05:16.438Z,68.08
2022-08-27T20:07:40.826Z,66.97
2022-08-27T20:10:09.520Z,67.75
2022-08-27T20:12:44.486Z,67.82
2022-08-27T20:15:14.554Z,68.22
2022-08-27T20:17:45.542Z,67.58
2022-08-27T20:20:16.008Z,67.50
2022-08-27T20:22:48.393Z,67.31
2022-08-27T20:25:22.136Z,67.04
2022-08-27T20:27:51.587Z,67.24
2022-08-27T20:30:27.058Z,67.42
2022-08-27T20:32:56.341Z,67.35
2022-08-27T20:35:27.028Z,66.97
2022-08-27T20:38:01.208Z,66.96
2022-08-27T20:40:36.662Z,66.82
2022-08-27T20:43:08.504Z,66.94
2022-08-27T20:45:41.059Z,66.77
2022-08-27T20:48:10.610Z,67.11
2022-08-27T20:50:40.885Z,66.52
2022-08-27T20:53:09.500Z,66.53
2022-08-27T20:55:42.340Z,66.69
2022-08-27T20:58:32.596Z,66.83
2022-08-27T21:01:01.295Z,66.93
2022-08-27T21:03:28.712Z,66.45
2022-08-27T21:05:56.868Z,66.90
2022-08-27T21:08:24.577Z,67.07
2022-08-27T21:10:57.027Z,66.62
2022-08-27T21:13:26.749Z,66.73
2022-08-27T21:15:56.301Z,66.67
2022-08-27T21:18:29.886Z,66.84
2022-08-27T21:21:00.021Z,67.16
2022-08-27T21:23:29.565Z,66.51
2022-08-27T21:26:24.188Z,66.44
2022-08-27T21:28:55.869Z,66.72
2022-08-27T21:31:25.284Z,66.78
2022-08-27T21:33:54.278Z,66.70
2022-08-27T21:36:22.807Z,66.69
2022-08-27T21:38:50.845Z,66.33
2022-08-27T21:41:20.385Z,66.55
2022-08-27T21:43:48.441Z,66.81
2022-08-27T21:46:16.946Z,67.30
2022-08-27T21:48:44.566Z,67.28
2022-08-27T21:51:20.036Z,67.26
2022-08-27T21:53:52.991Z,67.08
2022-08-27T21:56:20.678Z,67.19
2022-08-27T21:58:48.524Z,67.37
2022-08-27T22:01:16.097Z,66.96
2022-08-27T22:03:50.868Z,67.10
2022-08-27T22:06:20.783Z,67.26
2022-08-27T22:08:48.958Z,67.58
2022-08-27T22:11:21.999Z,67.30
2022-08-27T22:13:52.724Z,67.28
2022-08-27T22:16:21.168Z,67.27
2022-08-27T22:18:50.889Z,67.55
2022-08-27T22:21:23.479Z,67.01
2022-08-27T22:23:51.577Z,66.72
2022-08-27T22:26:21.113Z,66.99
2022-08-27T22:28:49.541Z,66.52
2022-08-27T22:31:18.034Z,66.96
2022-08-27T22:33:45.953Z,67.00
2022-08-27T22:36:14.180Z,66.96
2022-08-27T22:38:43.032Z,67.42
2022-08-27T22:41:10.607Z,68.02
2022-08-27T22:43:38.321Z,67.08
2022-08-27T22:46:06.255Z,67.42
2022-08-27T22:48:34.911Z,67.52
2022-08-27T22:51:03.230Z,67.68
2022-08-27T22:53:31.347Z,67.37
2022-08-27T22:56:00.239Z,67.24
2022-08-27T22:58:27.910Z,67.28
2022-08-27T23:00:56.872Z,67.48
2022-08-27T23:03:26.336Z,67.92
2022-08-27T23:05:55.457Z,67.82
2022-08-27T23:08:24.615Z,67.62
2022-08-27T23:10:53.233Z,67.92
2022-08-27T23:13:21.872Z,67.95
2022-08-27T23:15:49.945Z,68.24
2022-08-27T23:18:18.189Z,68.03
2022-08-27T23:20:45.863Z,68.21
2022-08-27T23:23:13.349Z,67.86
2022-08-27T23:25:59.857Z,67.93
2022-08-27T23:28:27.580Z,67.63
2022-08-27T23:30:56.207Z,67.93
2022-08-27T23:33:24.905Z,67.61
2022-08-27T23:35:55.612Z,67.71
2022-08-27T23:38:23.748Z,67.87
2022-08-27T23:40:52.835Z,68.00
2022-08-27T23:43:21.713Z,68.52
2022-08-27T23:45:49.076Z,68.44
2022-08-27T23:48:16.930Z,68.18
2022-08-27T23:50:47.254Z,68.40
2022-08-27T23:53:15.660Z,68.64
2022-08-27T23:55:43.612Z,68.73
2022-08-27T23:58:18.669Z,68.42
